South Lyme, CT (06376)

7:04 AM EDT on July 30, 2015 (GMT -0400)
Giant's Neck Heights | | Change Station
CLOSE
Current Station
Personal Weather Station
Location: Niantic, CT
Elevation: 89 ft
Nearby Weather Stations

Elev 89 ft 41.31 °N, 72.23 °W | Updated 2 minutes ago

Clear
Clear
75.4 °F
Feels Like 74 °F
N
4.0
Wind Variable Wind from West
Gusts 5.0 mph

Today
High -- | Low -- °F
--% Chance of Precip.
Yesterday
High -- | Low -- °F
Precip. -- in
5:42 AM 8:08 PM
Waxing Gibbous, 99% visible
Pressure 29.91 in
Visibility 4.0 miles
Clouds Clear
Heat Index 74 °F
Dew Point 74 °F
Humidity 95%
Rainfall 0.00 in
Snow Depth Not available.
UV 1 out of 12
Pollen 6.60 out of 12
Air Quality Not available.
Flu Activity Not available.
METAR KGON 301056Z 22003KT 4SM BR CLR 23/22 A2991 RMK AO2 SLP128 T02330222

More Conditions Fewer Conditions

Pressure 29.91 in
Visibility 4.0 miles
Clouds Clear
Heat Index 74 °F
Dew Point 74 °F
Humidity 95%
Rainfall 0.00 in
Snow Depth Not available.
UV 1 out of 12
Pollen 6.60 out of 12
Air Quality Not available.
Flu Activity Not available.
METAR KGON 301056Z 22003KT 4SM BR CLR 23/22 A2991 RMK AO2 SLP128 T02330222

More Conditions Fewer Conditions

10-Day Weather Forecast

×

Almanac

Astronomy

Jul. 30, 2015 Rise Set
Actual Time
Civil Twilight
Nautical Twilight
Astronomical Twilight
Moon
Length of Visible Light
Length of Day
Tomorrow will be .
, % of the Moon is Illuminated

Today's Extremes

State Highs State Lows

Community

WunderPhotos

Upload Photos

1,842,320 photos uploaded!

WunderBlogs® & News

Nearby

Air Quality

  Air Quality AQ Index Pollutant
Not available.

Snow Depth

Station Depth Elevation

Earthquake Activity

City Distance Mag. Time & Date
Minimum magnitude displayed is 2.5.

Coastal Water Temperatures

Place Temperature

Stations

Nearby Weather Stations

Station Location Temp. Windchill Dew Point Humidity Wind Precip. Elev Updated Type